Golden Spur — WSO2126 — position and weather

sailwx.info

Track history (hours):
 
Tides and Currents Weather Stations Pressure Air Temp Water Temp Dewpoint Dewpoint Depression Visibility Wind Speed Wind Dir Waves Ship Positions

Golden Spur

Last reported at 2018-Mar-04 00:23 UTC. Time now 2018-Apr-22 16:25 UTC.
Position N 16°21' W 061°53'.
Warning: this ship's position is 49 days out of date.

Length 28 m.

Type: Pleasure craft. MMSI: 338092974.

Date/timePositionNaut miles runAvg speedWind from/ knotsBaromVisibWave heightAir tempDewpointWater temp
2018-Mar-04 00:23N 16°21' W 061°53'410.7
2018-Mar-03 23:59N 16°24' W 061°57'1711.0
2018-Mar-03 22:23N 16°35' W 062°10'1011.2
2018-Mar-03 21:29N 16°43' W 062°18'  
2018-Feb-27 07:20N 25°06' W 077°16'0 0.0
2018-Feb-27 06:59N 25°06' W 077°16'0 0.0
2018-Feb-27 06:29N 25°06' W 077°16'0 0.0
2018-Feb-27 05:59N 25°06' W 077°16'0 0.0
2018-Feb-27 05:29N 25°06' W 077°16'0 0.0
2018-Feb-27 04:59N 25°06' W 077°16'0 0.0
2018-Feb-27 04:29N 25°06' W 077°16'0 0.0
2018-Feb-27 03:59N 25°06' W 077°16'0 0.0
2018-Feb-27 03:29N 25°06' W 077°16'0 0.6
2018-Feb-27 03:00N 25°06' W 077°16'1 2.7
2018-Feb-27 02:30N 25°07' W 077°16'4 7.3
2018-Feb-27 02:00N 25°07' W 077°20'1 2.8
2018-Feb-27 01:28N 25°06' W 077°21'1 2.1
2018-Feb-27 00:59N 25°05' W 077°20'3 7.1
2018-Feb-27 00:30N 25°06' W 077°24'138 9.4
2018-Feb-26 09:53N 26°04' W 079°43'4 9.5
2018-Feb-26 09:25N 26°05' W 079°48'5 9.3
2018-Feb-26 08:55N 26°05' W 079°53'4 9.4
2018-Feb-26 08:30N 26°05' W 079°57'5 9.2
2018-Feb-26 08:00N 26°05' W 080°02'4 8.8
2018-Feb-26 07:30N 26°06' W 080°07'2 0.4
2018-Feb-26 01:27N 26°09' W 080°06'0 0.0
2018-Feb-26 00:27N 26°09' W 080°06'0 0.0
2018-Feb-25 23:57N 26°09' W 080°06'0 0.0
2018-Feb-25 23:30N 26°09' W 080°06'45 0.9
2018-Feb-23 23:19N 26°54' W 080°05'2 7.6
2018-Feb-23 23:00N 26°56' W 080°05'2 3.8
2018-Feb-23 22:30N 26°58' W 080°05'  
Track history (hours):
 
Tides and Currents Weather Stations Pressure Air Temp Water Temp Dewpoint Dewpoint Depression Visibility Wind Speed Wind Dir Waves Ship Positions

Golden Spur

Last reported at 2018-Mar-04 00:23 UTC. Time now 2018-Apr-22 16:25 UTC.
Position N 16°21' W 061°53'.
Warning: this ship's position is 49 days out of date.

Length 28 m.

Type: Pleasure craft. MMSI: 338092974.

Date/timePositionNaut miles runAvg speedWind from/ knotsBaromVisibWave heightAir tempDewpointWater temp
2018-Mar-04 00:23N 16°21' W 061°53'410.7
2018-Mar-03 23:59N 16°24' W 061°57'1711.0
2018-Mar-03 22:23N 16°35' W 062°10'1011.2
2018-Mar-03 21:29N 16°43' W 062°18'  
2018-Feb-27 07:20N 25°06' W 077°16'0 0.0
2018-Feb-27 06:59N 25°06' W 077°16'0 0.0
2018-Feb-27 06:29N 25°06' W 077°16'0 0.0
2018-Feb-27 05:59N 25°06' W 077°16'0 0.0
2018-Feb-27 05:29N 25°06' W 077°16'0 0.0
2018-Feb-27 04:59N 25°06' W 077°16'0 0.0
2018-Feb-27 04:29N 25°06' W 077°16'0 0.0
2018-Feb-27 03:59N 25°06' W 077°16'0 0.0
2018-Feb-27 03:29N 25°06' W 077°16'0 0.6
2018-Feb-27 03:00N 25°06' W 077°16'1 2.7
2018-Feb-27 02:30N 25°07' W 077°16'4 7.3
2018-Feb-27 02:00N 25°07' W 077°20'1 2.8
2018-Feb-27 01:28N 25°06' W 077°21'1 2.1
2018-Feb-27 00:59N 25°05' W 077°20'3 7.1
2018-Feb-27 00:30N 25°06' W 077°24'138 9.4
2018-Feb-26 09:53N 26°04' W 079°43'4 9.5
2018-Feb-26 09:25N 26°05' W 079°48'5 9.3
2018-Feb-26 08:55N 26°05' W 079°53'4 9.4
2018-Feb-26 08:30N 26°05' W 079°57'5 9.2
2018-Feb-26 08:00N 26°05' W 080°02'4 8.8
2018-Feb-26 07:30N 26°06' W 080°07'2 0.4
2018-Feb-26 01:27N 26°09' W 080°06'0 0.0
2018-Feb-26 00:27N 26°09' W 080°06'0 0.0
2018-Feb-25 23:57N 26°09' W 080°06'0 0.0
2018-Feb-25 23:30N 26°09' W 080°06'45 0.9
2018-Feb-23 23:19N 26°54' W 080°05'2 7.6
2018-Feb-23 23:00N 26°56' W 080°05'2 3.8
2018-Feb-23 22:30N 26°58' W 080°05'  

Dump ship's entire track history